Terminal Aerodrome Forecast
Issued by NWS Cleveland, OH

Home | Current Version | Previous Version | Graphics & Text | Print | Product List | Glossary Off
Versions: 1 2 3 4 5 6 7 8 9 10 11 12 13 14 15 16 17 18 19 20 21 22

000
FTUS41 KCLE 190400 AAB
TAFCAK
TAF AMD
KCAK 190443Z 1905/1924 27005KT 3SM -SN OVC005
      TEMPO 1905/1908 -FZDZ
     FM190800 30005KT P6SM -SN OVC006
     FM191300 32005KT P6SM OVC012=

USA.gov is the U.S. government's official web portal to all federal, state and local government web resources and services.